createdAt,value
2023-01-06T00:01:36.245Z,89.60
2023-01-06T00:04:03.715Z,89.10
2023-01-06T00:06:31.679Z,88.57
2023-01-06T00:09:01.683Z,88.94
2023-01-06T00:11:28.990Z,88.89
2023-01-06T00:13:56.804Z,88.93
2023-01-06T00:16:24.011Z,88.97
2023-01-06T00:18:54.567Z,89.50
2023-01-06T00:21:21.691Z,90.41
2023-01-06T00:23:48.691Z,91.62
2023-01-06T00:26:15.777Z,92.23
2023-01-06T00:28:42.979Z,92.73
2023-01-06T00:31:12.424Z,92.91
2023-01-06T00:33:39.589Z,93.55
2023-01-06T00:36:07.359Z,93.39
2023-01-06T00:38:36.744Z,93.05
2023-01-06T00:41:05.530Z,93.56
2023-01-06T00:43:32.736Z,93.58
2023-01-06T00:46:01.984Z,93.69
2023-01-06T00:48:29.142Z,94.18
2023-01-06T00:51:00.675Z,94.69
2023-01-06T00:53:27.720Z,95.12
2023-01-06T00:55:59.955Z,95.70
2023-01-06T00:58:29.892Z,96.25
2023-01-06T01:00:56.974Z,97.02
2023-01-06T01:03:24.109Z,98.08
2023-01-06T01:05:51.240Z,98.74
2023-01-06T01:08:18.333Z,99.67
2023-01-06T01:10:45.392Z,99.90
2023-01-06T01:13:12.476Z,100.00
2023-01-06T01:15:39.652Z,100.00
2023-01-06T01:18:06.752Z,100.00
2023-01-06T01:20:34.399Z,100.00
2023-01-06T01:23:01.493Z,100.00
2023-01-06T01:25:28.530Z,100.00
2023-01-06T01:27:55.492Z,100.00
2023-01-06T01:30:22.530Z,100.00
2023-01-06T01:32:49.531Z,100.00
2023-01-06T01:35:16.715Z,100.00
2023-01-06T01:37:43.745Z,100.00
2023-01-06T01:40:11.384Z,100.00
2023-01-06T01:42:43.195Z,100.00
2023-01-06T01:45:13.284Z,100.00
2023-01-06T01:47:43.490Z,100.00
2023-01-06T01:50:14.257Z,100.00
2023-01-06T01:52:43.489Z,100.00
2023-01-06T01:55:11.231Z,100.00
2023-01-06T01:57:41.393Z,100.00
2023-01-06T02:00:09.014Z,100.00
2023-01-06T02:02:36.468Z,100.00
2023-01-06T02:05:03.852Z,99.13
2023-01-06T02:07:31.201Z,98.82
2023-01-06T02:10:01.310Z,97.70
2023-01-06T02:12:28.996Z,95.34
2023-01-06T02:14:56.076Z,94.75
2023-01-06T02:17:23.611Z,94.20
2023-01-06T02:19:51.944Z,93.96
2023-01-06T02:22:21.973Z,93.54
2023-01-06T02:24:52.023Z,93.34
2023-01-06T02:27:22.093Z,92.21
2023-01-06T02:29:52.303Z,91.91
2023-01-06T02:32:22.334Z,91.87
2023-01-06T02:34:52.431Z,92.28
2023-01-06T02:37:22.757Z,91.57
2023-01-06T02:39:51.403Z,91.12
2023-01-06T02:42:18.751Z,91.49
2023-01-06T02:44:48.835Z,91.79
2023-01-06T02:47:19.993Z,91.60
2023-01-06T02:49:52.742Z,91.58
2023-01-06T02:52:21.234Z,91.43
2023-01-06T02:54:51.377Z,91.54
2023-01-06T02:57:18.766Z,90.83
2023-01-06T02:59:50.352Z,90.10
2023-01-06T03:02:19.152Z,89.68
2023-01-06T03:04:47.927Z,90.19
2023-01-06T03:07:15.996Z,90.79
2023-01-06T03:09:44.247Z,90.82
2023-01-06T03:12:17.302Z,91.39
2023-01-06T03:14:47.042Z,91.54
2023-01-06T03:17:14.284Z,91.51
2023-01-06T03:19:41.536Z,91.74
2023-01-06T03:22:10.095Z,90.49
2023-01-06T03:24:38.077Z,90.48
2023-01-06T03:27:05.778Z,90.96
2023-01-06T03:29:33.255Z,90.90
2023-01-06T03:32:04.091Z,90.50
2023-01-06T03:34:34.194Z,91.36
2023-01-06T03:37:04.294Z,91.83
2023-01-06T03:39:31.664Z,91.69
2023-01-06T03:42:04.902Z,91.87
2023-01-06T03:44:33.304Z,91.20
2023-01-06T03:47:05.855Z,91.10
2023-01-06T03:49:36.729Z,91.12
2023-01-06T03:52:08.242Z,92.06
2023-01-06T03:54:36.777Z,91.28
2023-01-06T03:57:04.152Z,90.83
2023-01-06T03:59:33.313Z,90.76
2023-01-06T04:02:00.815Z,90.81
2023-01-06T04:04:27.916Z,91.08
2023-01-06T04:06:55.021Z,90.57
2023-01-06T04:09:22.274Z,90.29
2023-01-06T04:11:52.443Z,91.61
2023-01-06T04:14:19.555Z,91.45
2023-01-06T04:16:46.623Z,91.07
2023-01-06T04:19:13.794Z,91.58
2023-01-06T04:21:40.796Z,90.46
2023-01-06T04:24:07.928Z,90.65
2023-01-06T04:26:35.015Z,91.89
2023-01-06T04:29:02.760Z,91.16
2023-01-06T04:31:30.485Z,90.84
2023-01-06T04:33:58.440Z,90.41
2023-01-06T04:36:25.554Z,90.21
2023-01-06T04:38:52.650Z,91.04
2023-01-06T04:41:19.765Z,90.78
2023-01-06T04:43:46.856Z,91.81
2023-01-06T04:46:13.880Z,91.79
2023-01-06T04:48:41.175Z,91.57
2023-01-06T04:51:09.271Z,92.17
2023-01-06T04:53:37.225Z,91.77
2023-01-06T04:56:05.503Z,91.33
2023-01-06T04:58:33.140Z,90.73
2023-01-06T05:01:03.365Z,90.61
2023-01-06T05:03:30.936Z,89.94
2023-01-06T05:06:01.036Z,90.28
2023-01-06T05:08:28.263Z,91.14
2023-01-06T05:10:58.376Z,91.11
2023-01-06T05:13:25.435Z,90.92
2023-01-06T05:15:52.495Z,90.52
2023-01-06T05:18:19.493Z,90.38
2023-01-06T05:20:50.424Z,90.58
2023-01-06T05:23:17.576Z,90.88
2023-01-06T05:25:44.636Z,90.89
2023-01-06T05:28:12.199Z,91.27
2023-01-06T05:30:39.320Z,90.45
2023-01-06T05:33:06.546Z,90.81
2023-01-06T05:35:33.630Z,90.70
2023-01-06T05:38:00.631Z,91.88
2023-01-06T05:40:28.335Z,91.46
2023-01-06T05:42:56.962Z,91.74
2023-01-06T05:45:25.316Z,91.93
2023-01-06T05:47:52.736Z,91.47
2023-01-06T05:50:19.859Z,92.00
2023-01-06T05:52:46.908Z,91.65
2023-01-06T05:55:13.995Z,92.63
2023-01-06T05:57:41.135Z,92.86
2023-01-06T06:00:08.764Z,92.66
2023-01-06T06:02:35.916Z,92.60
2023-01-06T06:05:02.961Z,92.22
2023-01-06T06:07:30.155Z,92.02
2023-01-06T06:09:57.377Z,92.48
2023-01-06T06:12:24.439Z,91.66
2023-01-06T06:14:51.510Z,90.99
2023-01-06T06:17:18.717Z,90.69
2023-01-06T06:19:45.735Z,90.77
2023-01-06T06:22:12.902Z,91.02
2023-01-06T06:24:39.968Z,91.33
2023-01-06T06:27:06.951Z,92.07
2023-01-06T06:29:34.196Z,91.89
2023-01-06T06:32:01.260Z,91.96
2023-01-06T06:34:28.335Z,92.11
2023-01-06T06:36:55.463Z,91.75
2023-01-06T06:39:22.495Z,91.36
2023-01-06T06:41:49.530Z,91.10
2023-01-06T06:44:16.676Z,91.68
2023-01-06T06:46:43.807Z,91.65
2023-01-06T06:49:10.879Z,91.64
2023-01-06T06:51:38.006Z,91.26
2023-01-06T06:54:05.241Z,91.10
2023-01-06T06:56:32.261Z,92.25
2023-01-06T06:58:59.356Z,92.48
2023-01-06T07:01:26.627Z,92.29
2023-01-06T07:03:53.841Z,92.08
2023-01-06T07:06:23.759Z,91.60
2023-01-06T07:08:51.342Z,92.01
2023-01-06T07:11:18.857Z,91.58
2023-01-06T07:13:46.357Z,91.64
2023-01-06T07:16:13.611Z,91.77
2023-01-06T07:18:40.795Z,91.02
2023-01-06T07:21:08.068Z,91.46
2023-01-06T07:23:35.237Z,91.50
2023-01-06T07:26:03.096Z,91.40
2023-01-06T07:28:31.215Z,91.60
2023-01-06T07:30:58.394Z,90.77
2023-01-06T07:33:25.514Z,90.31
2023-01-06T07:35:53.946Z,90.95
2023-01-06T07:38:21.047Z,91.17
2023-01-06T07:40:48.451Z,91.18
2023-01-06T07:43:17.256Z,91.62
2023-01-06T07:45:46.296Z,91.68
2023-01-06T07:48:13.375Z,91.39
2023-01-06T07:50:40.467Z,91.44
2023-01-06T07:53:07.603Z,92.02
2023-01-06T07:55:34.683Z,92.10
2023-01-06T07:58:04.818Z,92.13
2023-01-06T08:00:32.044Z,92.52
2023-01-06T08:02:59.222Z,93.39
2023-01-06T08:05:26.296Z,93.38
2023-01-06T08:07:53.456Z,92.84
2023-01-06T08:10:20.600Z,92.69
2023-01-06T08:12:47.679Z,92.19
2023-01-06T08:15:14.741Z,92.08
2023-01-06T08:17:42.380Z,92.63
2023-01-06T08:20:10.159Z,92.62
2023-01-06T08:22:37.276Z,92.32
2023-01-06T08:25:04.477Z,92.79
2023-01-06T08:27:31.663Z,92.50
2023-01-06T08:29:59.443Z,92.90
2023-01-06T08:32:26.526Z,92.93
2023-01-06T08:34:53.853Z,92.92
2023-01-06T08:37:20.977Z,92.97
2023-01-06T08:39:48.135Z,93.27
2023-01-06T08:42:15.235Z,93.23
2023-01-06T08:44:42.422Z,92.32
2023-01-06T08:47:09.584Z,91.76
2023-01-06T08:49:36.661Z,91.13
2023-01-06T08:52:04.011Z,91.21
2023-01-06T08:54:31.153Z,92.04
2023-01-06T08:56:58.305Z,91.38
2023-01-06T08:59:25.308Z,96.24
2023-01-06T09:01:54.852Z,96.37
2023-01-06T09:04:22.120Z,94.22
2023-01-06T09:06:49.179Z,91.58
2023-01-06T09:09:17.236Z,90.32
2023-01-06T09:11:44.661Z,90.97
2023-01-06T09:14:12.337Z,90.27
2023-01-06T09:16:39.504Z,89.15
2023-01-06T09:19:06.624Z,89.30
2023-01-06T09:21:33.916Z,89.42
2023-01-06T09:24:00.982Z,88.46
2023-01-06T09:26:28.034Z,88.17
2023-01-06T09:28:55.612Z,88.32
2023-01-06T09:31:22.754Z,88.51
2023-01-06T09:33:49.943Z,87.74
2023-01-06T09:36:16.980Z,87.33
2023-01-06T09:38:44.081Z,87.01
2023-01-06T09:41:14.242Z,86.68
2023-01-06T09:43:50.047Z,86.87
2023-01-06T09:46:20.299Z,86.36
2023-01-06T09:48:57.333Z,86.44
2023-01-06T09:51:26.160Z,86.34
2023-01-06T09:53:57.256Z,86.59
2023-01-06T09:56:25.461Z,87.02
2023-01-06T09:58:57.361Z,85.95
2023-01-06T10:01:28.112Z,85.83
2023-01-06T10:03:57.291Z,85.31
2023-01-06T10:06:27.519Z,85.50
2023-01-06T10:08:57.717Z,85.31
2023-01-06T10:11:26.263Z,85.43
2023-01-06T10:13:57.109Z,84.48
2023-01-06T10:16:27.231Z,84.60
2023-01-06T10:18:59.622Z,84.44
2023-01-06T10:21:29.802Z,84.48
2023-01-06T10:23:59.984Z,84.19
2023-01-06T10:26:30.336Z,84.74
2023-01-06T10:29:00.549Z,84.42
2023-01-06T10:31:30.788Z,84.47
2023-01-06T10:33:58.677Z,83.40
2023-01-06T10:36:33.211Z,83.38
2023-01-06T10:39:01.658Z,83.64
2023-01-06T10:41:31.817Z,83.17
2023-01-06T10:43:58.974Z,82.67
2023-01-06T10:46:30.986Z,82.84
2023-01-06T10:48:58.179Z,82.57
2023-01-06T10:51:25.655Z,82.87
2023-01-06T10:53:53.299Z,82.52
2023-01-06T10:56:20.396Z,82.47
2023-01-06T10:58:53.575Z,81.91
2023-01-06T11:01:23.923Z,81.97
2023-01-06T11:04:07.076Z,81.77
2023-01-06T11:06:34.900Z,80.78
2023-01-06T11:09:08.054Z,80.89
2023-01-06T11:11:45.781Z,81.00
2023-01-06T11:14:15.947Z,80.50
2023-01-06T11:16:43.113Z,81.10
2023-01-06T11:19:23.102Z,80.57
2023-01-06T11:21:50.176Z,80.34
2023-01-06T11:24:20.619Z,80.40
2023-01-06T11:26:50.781Z,80.74
2023-01-06T11:29:19.914Z,80.14
2023-01-06T11:31:49.486Z,79.85
2023-01-06T11:34:19.693Z,80.89
2023-01-06T11:36:47.411Z,81.22
2023-01-06T11:39:16.723Z,81.00
2023-01-06T11:41:46.304Z,80.69
2023-01-06T11:44:13.816Z,80.41
2023-01-06T11:46:46.539Z,80.88
2023-01-06T11:49:16.982Z,81.03
2023-01-06T11:51:44.919Z,80.00
2023-01-06T11:54:15.679Z,80.19
2023-01-06T11:56:57.184Z,79.85
2023-01-06T11:59:25.666Z,79.41
2023-01-06T12:01:55.909Z,79.36
2023-01-06T12:04:26.247Z,79.60
2023-01-06T12:06:55.720Z,79.33
2023-01-06T12:09:23.246Z,79.05
2023-01-06T12:11:50.732Z,78.80
2023-01-06T12:14:28.463Z,78.78
2023-01-06T12:16:59.490Z,78.89
2023-01-06T12:19:33.305Z,79.13
2023-01-06T12:22:01.310Z,78.71
2023-01-06T12:24:30.142Z,79.20
2023-01-06T12:26:57.572Z,78.99
2023-01-06T12:29:25.466Z,79.48
2023-01-06T12:31:55.687Z,79.50
2023-01-06T12:34:26.215Z,79.59
2023-01-06T12:36:56.702Z,79.12
2023-01-06T12:39:28.518Z,79.84
2023-01-06T12:41:57.590Z,79.94
2023-01-06T12:44:27.735Z,80.32
2023-01-06T12:46:57.961Z,80.41
2023-01-06T12:49:29.718Z,79.79
2023-01-06T12:51:58.811Z,79.92
2023-01-06T12:54:27.338Z,80.42
2023-01-06T12:56:57.602Z,81.11
2023-01-06T12:59:26.139Z,81.17
2023-01-06T13:01:54.125Z,80.99
2023-01-06T13:04:21.743Z,81.48
2023-01-06T13:06:52.035Z,81.55
2023-01-06T13:09:23.172Z,80.96
2023-01-06T13:11:50.584Z,80.17
2023-01-06T13:14:20.713Z,79.87
2023-01-06T13:16:51.169Z,80.05
2023-01-06T13:19:21.695Z,80.54
2023-01-06T13:21:51.069Z,80.70
2023-01-06T13:24:27.223Z,81.95
2023-01-06T13:26:54.738Z,81.17
2023-01-06T13:29:25.013Z,80.40
2023-01-06T13:32:01.645Z,80.55
2023-01-06T13:34:37.292Z,81.04
2023-01-06T13:37:07.424Z,80.82
2023-01-06T13:39:39.523Z,80.49
2023-01-06T13:42:08.237Z,79.91
2023-01-06T13:44:37.552Z,79.88
2023-01-06T13:47:06.835Z,80.54
2023-01-06T13:49:34.678Z,80.07
2023-01-06T13:52:01.819Z,80.12
2023-01-06T13:54:32.013Z,80.33
2023-01-06T13:57:02.234Z,80.21
2023-01-06T13:59:29.297Z,80.59
2023-01-06T14:02:00.128Z,79.82
2023-01-06T14:04:31.026Z,79.78
2023-01-06T14:06:58.511Z,79.60
2023-01-06T14:09:25.782Z,79.88
2023-01-06T14:11:53.436Z,79.27
2023-01-06T14:14:26.927Z,79.07
2023-01-06T14:16:54.942Z,79.35
2023-01-06T14:19:24.336Z,79.72
2023-01-06T14:21:54.628Z,81.33
2023-01-06T14:24:23.545Z,80.49
2023-01-06T14:26:54.505Z,80.75
2023-01-06T14:29:24.829Z,80.79
2023-01-06T14:31:52.097Z,81.35
2023-01-06T14:34:19.424Z,81.96
2023-01-06T14:36:50.159Z,82.14
2023-01-06T14:39:20.898Z,82.16
2023-01-06T14:41:51.197Z,82.64
2023-01-06T14:44:20.502Z,82.73
2023-01-06T14:46:50.668Z,82.76
2023-01-06T14:49:21.139Z,82.92
2023-01-06T14:51:53.534Z,82.61
2023-01-06T14:54:20.955Z,82.98
2023-01-06T14:56:51.071Z,83.37
2023-01-06T14:59:18.279Z,83.62
2023-01-06T15:01:54.773Z,84.61
2023-01-06T15:04:25.137Z,84.53
2023-01-06T15:06:55.382Z,84.55
2023-01-06T15:09:22.400Z,84.82
2023-01-06T15:11:49.639Z,85.48
2023-01-06T15:14:19.947Z,85.86
2023-01-06T15:16:47.076Z,85.93
2023-01-06T15:19:15.597Z,85.86
2023-01-06T15:21:44.628Z,86.29
2023-01-06T15:24:14.869Z,87.15
2023-01-06T15:26:42.491Z,87.43
2023-01-06T15:29:15.220Z,87.37
2023-01-06T15:31:43.322Z,87.39
2023-01-06T15:34:18.791Z,87.81
2023-01-06T15:36:46.743Z,87.96
2023-01-06T15:39:16.019Z,88.29
2023-01-06T15:41:43.637Z,88.63
2023-01-06T15:44:13.839Z,88.88
2023-01-06T15:46:42.456Z,88.89
2023-01-06T15:49:12.627Z,89.65
2023-01-06T15:51:39.764Z,89.85
2023-01-06T15:54:06.947Z,90.14
2023-01-06T15:56:34.165Z,90.41
2023-01-06T15:59:02.030Z,90.80
2023-01-06T16:01:29.282Z,91.08
2023-01-06T16:03:58.696Z,91.49
2023-01-06T16:06:27.231Z,91.77
2023-01-06T16:08:54.456Z,91.98
2023-01-06T16:11:43.015Z,92.47
2023-01-06T16:14:13.393Z,92.65
2023-01-06T16:16:40.676Z,93.18
2023-01-06T16:19:10.834Z,93.27
2023-01-06T16:21:38.090Z,93.54
2023-01-06T16:24:06.027Z,94.00
2023-01-06T16:26:41.001Z,93.87
2023-01-06T16:29:24.624Z,94.66
2023-01-06T16:31:51.651Z,95.22
2023-01-06T16:34:21.719Z,95.11
2023-01-06T16:36:49.625Z,95.27
2023-01-06T16:39:17.025Z,95.62
2023-01-06T16:41:47.153Z,95.74
2023-01-06T16:44:16.443Z,95.78
2023-01-06T16:46:43.781Z,95.96
2023-01-06T16:49:11.161Z,96.22
2023-01-06T16:51:38.381Z,96.34
2023-01-06T16:54:11.126Z,96.34
2023-01-06T16:56:38.924Z,96.57
2023-01-06T16:59:09.182Z,96.44
2023-01-06T17:01:36.489Z,96.89
2023-01-06T17:04:03.967Z,96.65
2023-01-06T17:06:31.845Z,96.45
2023-01-06T17:09:01.546Z,96.75
2023-01-06T17:11:29.882Z,96.71
2023-01-06T17:13:59.985Z,96.87
2023-01-06T17:16:31.412Z,96.64
2023-01-06T17:19:00.564Z,96.78
2023-01-06T17:21:28.117Z,96.73
2023-01-06T17:24:02.996Z,96.67
2023-01-06T17:26:30.110Z,97.09
2023-01-06T17:28:57.951Z,97.54
2023-01-06T17:31:29.311Z,97.58
2023-01-06T17:33:57.784Z,97.80
2023-01-06T17:36:25.955Z,98.12
2023-01-06T17:38:53.357Z,98.80
2023-01-06T17:41:21.641Z,98.99
2023-01-06T17:43:48.845Z,99.12
2023-01-06T17:46:19.614Z,99.43
2023-01-06T17:48:48.122Z,99.58
2023-01-06T17:51:16.125Z,99.95
2023-01-06T17:53:46.548Z,100.00
2023-01-06T17:56:13.737Z,100.00
2023-01-06T17:58:43.558Z,100.00
2023-01-06T18:01:14.613Z,100.00
2023-01-06T18:03:43.120Z,100.00
2023-01-06T18:06:13.475Z,100.00
2023-01-06T18:08:40.547Z,100.00
2023-01-06T18:11:10.982Z,100.00
2023-01-06T18:13:39.301Z,100.00
2023-01-06T18:16:24.474Z,100.00
2023-01-06T18:18:51.596Z,100.00
2023-01-06T18:21:21.658Z,100.00
2023-01-06T18:23:50.835Z,100.00
2023-01-06T18:26:21.305Z,100.00
2023-01-06T18:28:48.438Z,100.00
2023-01-06T18:31:17.689Z,100.00
2023-01-06T18:33:44.852Z,100.00
2023-01-06T18:36:11.983Z,100.00
2023-01-06T18:38:39.068Z,100.00
2023-01-06T18:41:10.211Z,100.00
2023-01-06T18:43:39.328Z,100.00
2023-01-06T18:46:09.586Z,100.00
2023-01-06T18:48:38.606Z,100.00
2023-01-06T18:51:16.404Z,100.00
2023-01-06T18:53:43.839Z,100.00
2023-01-06T18:56:14.981Z,100.00
2023-01-06T18:58:48.386Z,100.00
2023-01-06T19:01:20.008Z,100.00
2023-01-06T19:03:50.263Z,100.00
2023-01-06T19:06:18.659Z,100.00
2023-01-06T19:08:47.344Z,100.00
2023-01-06T19:11:17.899Z,100.00
2023-01-06T19:13:46.023Z,100.00
2023-01-06T19:16:16.237Z,100.00
2023-01-06T19:18:43.378Z,100.00
2023-01-06T19:21:13.578Z,100.00
2023-01-06T19:23:40.957Z,100.00
2023-01-06T19:26:11.781Z,100.00
2023-01-06T19:28:38.881Z,100.00
2023-01-06T19:31:06.434Z,100.00
2023-01-06T19:33:35.141Z,100.00
2023-01-06T19:36:03.695Z,100.00
2023-01-06T19:38:34.146Z,100.00
2023-01-06T19:41:02.781Z,100.00
2023-01-06T19:43:31.579Z,100.00
2023-01-06T19:46:02.250Z,100.00
2023-01-06T19:48:38.378Z,100.00
2023-01-06T19:51:08.539Z,100.00
2023-01-06T19:53:41.695Z,99.95
2023-01-06T19:56:12.045Z,100.00
2023-01-06T19:58:39.101Z,100.00
2023-01-06T20:01:06.393Z,99.55
2023-01-06T20:03:34.544Z,99.26
2023-01-06T20:06:01.964Z,99.01
2023-01-06T20:08:29.196Z,98.72
2023-01-06T20:10:56.466Z,98.65
2023-01-06T20:13:23.876Z,98.56
2023-01-06T20:15:50.955Z,98.58
2023-01-06T20:18:18.181Z,98.56
2023-01-06T20:20:45.216Z,98.49
2023-01-06T20:23:12.359Z,98.35
2023-01-06T20:25:39.606Z,98.03
2023-01-06T20:28:06.856Z,97.92
2023-01-06T20:30:33.997Z,97.54
2023-01-06T20:33:01.146Z,97.41
2023-01-06T20:35:28.456Z,97.13
2023-01-06T20:37:55.605Z,96.99
2023-01-06T20:40:22.710Z,97.06
2023-01-06T20:42:50.022Z,96.52
2023-01-06T20:45:17.265Z,96.60
2023-01-06T20:47:44.465Z,96.77
2023-01-06T20:50:14.151Z,96.95
2023-01-06T20:52:41.779Z,97.16
2023-01-06T20:55:09.496Z,96.68
2023-01-06T20:57:36.823Z,97.00
2023-01-06T21:00:05.081Z,97.10
2023-01-06T21:02:32.318Z,97.24
2023-01-06T21:04:59.647Z,96.99
2023-01-06T21:07:26.847Z,97.09
2023-01-06T21:09:53.995Z,97.06
2023-01-06T21:12:21.104Z,97.28
2023-01-06T21:14:48.257Z,97.18
2023-01-06T21:17:15.398Z,97.04
2023-01-06T21:19:42.595Z,97.21
2023-01-06T21:22:10.052Z,97.33
2023-01-06T21:24:37.175Z,97.78
2023-01-06T21:27:04.347Z,97.07
2023-01-06T21:29:31.534Z,96.67
2023-01-06T21:32:00.742Z,96.58
2023-01-06T21:34:28.143Z,96.25
2023-01-06T21:36:55.461Z,96.69
2023-01-06T21:39:22.736Z,96.66
2023-01-06T21:41:53.079Z,95.99
2023-01-06T21:44:21.497Z,96.01
2023-01-06T21:46:48.718Z,95.73
2023-01-06T21:49:15.998Z,95.94
2023-01-06T21:51:43.243Z,95.99
2023-01-06T21:54:10.473Z,95.98
2023-01-06T21:56:37.851Z,96.13
2023-01-06T21:59:05.061Z,95.81
2023-01-06T22:01:32.204Z,95.65
2023-01-06T22:03:59.515Z,95.65
2023-01-06T22:06:30.085Z,95.50
2023-01-06T22:08:58.637Z,95.54
2023-01-06T22:11:25.967Z,95.47
2023-01-06T22:13:53.642Z,95.68
2023-01-06T22:16:20.963Z,95.50
2023-01-06T22:18:48.104Z,95.66
2023-01-06T22:21:15.508Z,95.68
2023-01-06T22:23:43.774Z,95.87
2023-01-06T22:26:10.941Z,96.21
2023-01-06T22:28:38.141Z,95.90
2023-01-06T22:31:05.410Z,95.69
2023-01-06T22:33:32.540Z,96.04
2023-01-06T22:36:00.228Z,96.12
2023-01-06T22:38:27.468Z,96.30
2023-01-06T22:40:54.627Z,96.02
2023-01-06T22:43:22.488Z,96.09
2023-01-06T22:45:52.680Z,95.72
2023-01-06T22:48:20.256Z,95.21
2023-01-06T22:50:47.374Z,94.65
2023-01-06T22:53:15.054Z,94.82
2023-01-06T22:55:42.136Z,94.56
2023-01-06T22:58:09.360Z,94.80
2023-01-06T23:00:36.536Z,94.79
2023-01-06T23:03:03.684Z,94.74
2023-01-06T23:05:30.944Z,94.38
2023-01-06T23:07:58.038Z,94.49
2023-01-06T23:10:25.180Z,93.97
2023-01-06T23:12:53.315Z,94.43
2023-01-06T23:15:20.447Z,94.04
2023-01-06T23:17:47.792Z,93.63
2023-01-06T23:20:14.845Z,93.76
2023-01-06T23:22:41.904Z,93.85
2023-01-06T23:25:09.725Z,93.81
2023-01-06T23:27:38.175Z,93.97
2023-01-06T23:30:06.004Z,94.23
2023-01-06T23:32:33.065Z,93.86
2023-01-06T23:35:00.178Z,93.63
2023-01-06T23:37:43.492Z,93.66
2023-01-06T23:40:15.623Z,93.53
2023-01-06T23:42:48.303Z,93.09
2023-01-06T23:45:15.339Z,93.36
2023-01-06T23:47:42.355Z,93.18
2023-01-06T23:50:09.833Z,92.90
2023-01-06T23:52:36.974Z,93.49
2023-01-06T23:55:05.195Z,93.44
2023-01-06T23:57:32.260Z,93.32
2023-01-06T23:59:59.357Z,92.87
